sensor_id;sensor_type;location;lat;lon;timestamp;P1;durP1;ratioP1;P2;durP2;ratioP2
21213;SDS011;10764;50.850;2.904;2023-04-08T00:00:28;1.65;;;0.55;;
21213;SDS011;10764;50.850;2.904;2023-04-08T00:02:55;1.85;;;0.50;;
21213;SDS011;10764;50.850;2.904;2023-04-08T00:05:21;1.20;;;0.50;;
21213;SDS011;10764;50.850;2.904;2023-04-08T00:07:48;1.30;;;0.40;;
21213;SDS011;10764;50.850;2.904;2023-04-08T00:10:15;2.35;;;0.40;;
21213;SDS011;10764;50.850;2.904;2023-04-08T00:12:42;1.33;;;0.50;;
21213;SDS011;10764;50.850;2.904;2023-04-08T00:15:09;0.85;;;0.43;;
21213;SDS011;10764;50.850;2.904;2023-04-08T00:17:36;1.15;;;0.40;;
21213;SDS011;10764;50.850;2.904;2023-04-08T00:20:04;1.13;;;0.43;;
21213;SDS011;10764;50.850;2.904;2023-04-08T00:22:31;1.58;;;0.40;;
21213;SDS011;10764;50.850;2.904;2023-04-08T00:24:58;1.77;;;0.52;;
21213;SDS011;10764;50.850;2.904;2023-04-08T00:27:24;1.42;;;0.40;;
21213;SDS011;10764;50.850;2.904;2023-04-08T00:29:52;2.17;;;0.50;;
21213;SDS011;10764;50.850;2.904;2023-04-08T00:32:18;1.80;;;0.60;;
21213;SDS011;10764;50.850;2.904;2023-04-08T00:34:45;1.33;;;0.40;;
21213;SDS011;10764;50.850;2.904;2023-04-08T00:37:12;1.42;;;0.50;;
21213;SDS011;10764;50.850;2.904;2023-04-08T00:39:39;1.27;;;0.40;;
21213;SDS011;10764;50.850;2.904;2023-04-08T00:42:07;1.17;;;0.40;;
21213;SDS011;10764;50.850;2.904;2023-04-08T00:44:34;2.25;;;0.50;;
21213;SDS011;10764;50.850;2.904;2023-04-08T00:47:02;0.98;;;0.50;;
21213;SDS011;10764;50.850;2.904;2023-04-08T00:49:30;1.02;;;0.40;;
21213;SDS011;10764;50.850;2.904;2023-04-08T00:51:58;0.85;;;0.40;;
21213;SDS011;10764;50.850;2.904;2023-04-08T00:54:25;1.40;;;0.50;;
21213;SDS011;10764;50.850;2.904;2023-04-08T00:56:52;1.10;;;0.40;;
21213;SDS011;10764;50.850;2.904;2023-04-08T00:59:19;1.60;;;0.40;;
21213;SDS011;10764;50.850;2.904;2023-04-08T01:07:26;1.17;;;0.43;;
21213;SDS011;10764;50.850;2.904;2023-04-08T01:13:00;1.52;;;0.50;;
21213;SDS011;10764;50.850;2.904;2023-04-08T01:15:31;1.60;;;0.40;;
21213;SDS011;10764;50.850;2.904;2023-04-08T01:18:00;1.50;;;0.60;;
21213;SDS011;10764;50.850;2.904;2023-04-08T01:20:32;1.70;;;0.60;;
21213;SDS011;10764;50.850;2.904;2023-04-08T01:25:29;2.45;;;0.50;;
21213;SDS011;10764;50.850;2.904;2023-04-08T01:28:11;2.13;;;0.50;;
21213;SDS011;10764;50.850;2.904;2023-04-08T01:30:41;1.48;;;0.50;;
21213;SDS011;10764;50.850;2.904;2023-04-08T01:33:10;1.13;;;0.32;;
21213;SDS011;10764;50.850;2.904;2023-04-08T01:35:38;1.33;;;0.63;;
21213;SDS011;10764;50.850;2.904;2023-04-08T01:38:06;1.90;;;0.50;;
21213;SDS011;10764;50.850;2.904;2023-04-08T01:40:34;1.38;;;0.60;;
21213;SDS011;10764;50.850;2.904;2023-04-08T01:43:04;1.13;;;0.60;;
21213;SDS011;10764;50.850;2.904;2023-04-08T01:45:33;1.27;;;0.50;;
21213;SDS011;10764;50.850;2.904;2023-04-08T01:48:00;1.85;;;0.70;;
21213;SDS011;10764;50.850;2.904;2023-04-08T01:50:28;1.88;;;0.40;;
21213;SDS011;10764;50.850;2.904;2023-04-08T01:52:56;1.17;;;0.60;;
21213;SDS011;10764;50.850;2.904;2023-04-08T01:55:25;1.10;;;0.50;;
21213;SDS011;10764;50.850;2.904;2023-04-08T01:57:53;0.85;;;0.40;;
21213;SDS011;10764;50.850;2.904;2023-04-08T02:00:24;1.80;;;0.50;;
21213;SDS011;10764;50.850;2.904;2023-04-08T02:02:54;1.02;;;0.40;;
21213;SDS011;10764;50.850;2.904;2023-04-08T02:05:22;2.63;;;0.60;;
21213;SDS011;10764;50.850;2.904;2023-04-08T02:07:50;1.37;;;0.50;;
21213;SDS011;10764;50.850;2.904;2023-04-08T02:10:17;1.33;;;0.60;;
21213;SDS011;10764;50.850;2.904;2023-04-08T02:12:44;1.77;;;0.50;;
21213;SDS011;10764;50.850;2.904;2023-04-08T02:15:11;0.80;;;0.40;;
21213;SDS011;10764;50.850;2.904;2023-04-08T02:23:13;2.27;;;0.47;;
21213;SDS011;10764;50.850;2.904;2023-04-08T02:25:45;1.70;;;0.40;;
21213;SDS011;10764;50.850;2.904;2023-04-08T02:28:14;1.65;;;0.50;;
21213;SDS011;10764;50.850;2.904;2023-04-08T02:30:45;1.75;;;0.50;;
21213;SDS011;10764;50.850;2.904;2023-04-08T02:33:16;0.90;;;0.50;;
21213;SDS011;10764;50.850;2.904;2023-04-08T02:35:45;1.27;;;0.50;;
21213;SDS011;10764;50.850;2.904;2023-04-08T02:38:13;1.85;;;0.45;;
21213;SDS011;10764;50.850;2.904;2023-04-08T02:40:41;2.58;;;0.57;;
21213;SDS011;10764;50.850;2.904;2023-04-08T02:43:08;1.48;;;0.55;;
21213;SDS011;10764;50.850;2.904;2023-04-08T02:45:40;1.45;;;0.60;;
21213;SDS011;10764;50.850;2.904;2023-04-08T02:48:08;2.10;;;0.50;;
21213;SDS011;10764;50.850;2.904;2023-04-08T02:50:35;1.13;;;0.50;;
21213;SDS011;10764;50.850;2.904;2023-04-08T02:53:02;2.40;;;0.40;;
21213;SDS011;10764;50.850;2.904;2023-04-08T02:55:31;1.38;;;0.40;;
21213;SDS011;10764;50.850;2.904;2023-04-08T02:57:58;1.00;;;0.45;;
21213;SDS011;10764;50.850;2.904;2023-04-08T03:00:25;1.15;;;0.60;;
21213;SDS011;10764;50.850;2.904;2023-04-08T03:02:52;1.73;;;0.70;;
21213;SDS011;10764;50.850;2.904;2023-04-08T03:05:19;1.00;;;0.40;;
21213;SDS011;10764;50.850;2.904;2023-04-08T03:07:46;1.90;;;0.50;;
21213;SDS011;10764;50.850;2.904;2023-04-08T03:10:13;0.90;;;0.40;;
21213;SDS011;10764;50.850;2.904;2023-04-08T03:12:40;2.13;;;0.47;;
21213;SDS011;10764;50.850;2.904;2023-04-08T03:15:07;1.30;;;0.40;;
21213;SDS011;10764;50.850;2.904;2023-04-08T03:17:34;1.60;;;0.60;;
21213;SDS011;10764;50.850;2.904;2023-04-08T03:20:01;0.60;;;0.50;;
21213;SDS011;10764;50.850;2.904;2023-04-08T03:22:30;1.48;;;0.50;;
21213;SDS011;10764;50.850;2.904;2023-04-08T03:24:58;1.20;;;0.50;;
21213;SDS011;10764;50.850;2.904;2023-04-08T03:27:25;0.95;;;0.40;;
21213;SDS011;10764;50.850;2.904;2023-04-08T03:29:51;0.80;;;0.50;;
21213;SDS011;10764;50.850;2.904;2023-04-08T03:32:19;0.65;;;0.43;;
21213;SDS011;10764;50.850;2.904;2023-04-08T03:34:46;0.87;;;0.40;;
21213;SDS011;10764;50.850;2.904;2023-04-08T03:37:14;1.70;;;0.50;;
21213;SDS011;10764;50.850;2.904;2023-04-08T03:39:42;1.00;;;0.37;;
21213;SDS011;10764;50.850;2.904;2023-04-08T03:42:09;2.75;;;0.50;;
21213;SDS011;10764;50.850;2.904;2023-04-08T03:44:36;1.33;;;0.40;;
21213;SDS011;10764;50.850;2.904;2023-04-08T03:47:02;2.97;;;0.50;;
21213;SDS011;10764;50.850;2.904;2023-04-08T03:49:29;1.65;;;0.47;;
21213;SDS011;10764;50.850;2.904;2023-04-08T03:51:56;1.05;;;0.40;;
21213;SDS011;10764;50.850;2.904;2023-04-08T03:54:22;0.55;;;0.30;;
21213;SDS011;10764;50.850;2.904;2023-04-08T03:56:49;1.30;;;0.50;;
21213;SDS011;10764;50.850;2.904;2023-04-08T03:59:16;1.33;;;0.45;;
21213;SDS011;10764;50.850;2.904;2023-04-08T04:01:43;1.08;;;0.50;;
21213;SDS011;10764;50.850;2.904;2023-04-08T04:04:10;0.70;;;0.40;;
21213;SDS011;10764;50.850;2.904;2023-04-08T04:06:37;1.13;;;0.43;;
21213;SDS011;10764;50.850;2.904;2023-04-08T04:09:03;1.30;;;0.50;;
21213;SDS011;10764;50.850;2.904;2023-04-08T04:11:30;1.83;;;0.40;;
21213;SDS011;10764;50.850;2.904;2023-04-08T04:13:59;1.05;;;0.38;;
21213;SDS011;10764;50.850;2.904;2023-04-08T04:16:26;1.40;;;0.50;;
21213;SDS011;10764;50.850;2.904;2023-04-08T04:18:54;2.05;;;0.50;;
21213;SDS011;10764;50.850;2.904;2023-04-08T04:21:21;1.05;;;0.50;;
21213;SDS011;10764;50.850;2.904;2023-04-08T04:23:48;3.30;;;0.50;;
21213;SDS011;10764;50.850;2.904;2023-04-08T04:26:15;1.30;;;0.32;;
21213;SDS011;10764;50.850;2.904;2023-04-08T04:28:41;1.90;;;0.50;;
21213;SDS011;10764;50.850;2.904;2023-04-08T04:31:16;1.03;;;0.50;;
21213;SDS011;10764;50.850;2.904;2023-04-08T04:33:44;1.10;;;0.50;;
21213;SDS011;10764;50.850;2.904;2023-04-08T04:36:12;0.65;;;0.40;;
21213;SDS011;10764;50.850;2.904;2023-04-08T04:38:40;2.70;;;0.50;;
21213;SDS011;10764;50.850;2.904;2023-04-08T04:41:08;1.40;;;0.50;;
21213;SDS011;10764;50.850;2.904;2023-04-08T04:43:35;1.73;;;0.40;;
21213;SDS011;10764;50.850;2.904;2023-04-08T04:46:02;1.13;;;0.47;;
21213;SDS011;10764;50.850;2.904;2023-04-08T04:48:32;1.05;;;0.50;;
21213;SDS011;10764;50.850;2.904;2023-04-08T04:50:59;1.35;;;0.40;;
21213;SDS011;10764;50.850;2.904;2023-04-08T04:53:28;1.52;;;0.43;;
21213;SDS011;10764;50.850;2.904;2023-04-08T04:55:56;0.82;;;0.43;;
21213;SDS011;10764;50.850;2.904;2023-04-08T04:58:23;1.00;;;0.40;;
21213;SDS011;10764;50.850;2.904;2023-04-08T05:00:50;0.90;;;0.50;;
21213;SDS011;10764;50.850;2.904;2023-04-08T05:03:17;1.05;;;0.47;;
21213;SDS011;10764;50.850;2.904;2023-04-08T05:05:48;0.90;;;0.50;;
21213;SDS011;10764;50.850;2.904;2023-04-08T05:08:19;1.35;;;0.40;;
21213;SDS011;10764;50.850;2.904;2023-04-08T05:10:46;0.80;;;0.40;;
21213;SDS011;10764;50.850;2.904;2023-04-08T05:13:15;0.60;;;0.38;;
21213;SDS011;10764;50.850;2.904;2023-04-08T05:15:43;0.90;;;0.47;;
21213;SDS011;10764;50.850;2.904;2023-04-08T05:18:12;2.05;;;0.52;;
21213;SDS011;10764;50.850;2.904;2023-04-08T05:20:39;0.80;;;0.40;;
21213;SDS011;10764;50.850;2.904;2023-04-08T05:23:06;1.02;;;0.43;;
21213;SDS011;10764;50.850;2.904;2023-04-08T05:25:33;1.42;;;0.50;;
21213;SDS011;10764;50.850;2.904;2023-04-08T05:28:00;1.42;;;0.50;;
21213;SDS011;10764;50.850;2.904;2023-04-08T05:30:27;2.05;;;0.40;;
21213;SDS011;10764;50.850;2.904;2023-04-08T05:32:54;1.27;;;0.45;;
21213;SDS011;10764;50.850;2.904;2023-04-08T05:35:25;1.67;;;0.50;;
21213;SDS011;10764;50.850;2.904;2023-04-08T05:37:52;1.10;;;0.40;;
21213;SDS011;10764;50.850;2.904;2023-04-08T05:40:18;1.33;;;0.52;;
21213;SDS011;10764;50.850;2.904;2023-04-08T05:42:45;1.17;;;0.50;;
21213;SDS011;10764;50.850;2.904;2023-04-08T05:45:12;1.45;;;0.55;;
21213;SDS011;10764;50.850;2.904;2023-04-08T05:47:39;1.38;;;0.60;;
21213;SDS011;10764;50.850;2.904;2023-04-08T05:50:06;1.57;;;0.57;;
21213;SDS011;10764;50.850;2.904;2023-04-08T05:52:33;1.20;;;0.60;;
21213;SDS011;10764;50.850;2.904;2023-04-08T05:55:00;1.63;;;0.53;;
21213;SDS011;10764;50.850;2.904;2023-04-08T05:57:27;1.10;;;0.40;;
21213;SDS011;10764;50.850;2.904;2023-04-08T05:59:53;1.02;;;0.38;;
21213;SDS011;10764;50.850;2.904;2023-04-08T06:02:20;1.13;;;0.57;;
21213;SDS011;10764;50.850;2.904;2023-04-08T06:04:47;1.88;;;0.60;;
21213;SDS011;10764;50.850;2.904;2023-04-08T06:07:14;1.45;;;0.50;;
21213;SDS011;10764;50.850;2.904;2023-04-08T06:09:41;1.40;;;0.70;;
21213;SDS011;10764;50.850;2.904;2023-04-08T06:12:10;1.20;;;0.50;;
21213;SDS011;10764;50.850;2.904;2023-04-08T06:14:37;1.17;;;0.60;;
21213;SDS011;10764;50.850;2.904;2023-04-08T06:17:04;1.52;;;0.70;;
21213;SDS011;10764;50.850;2.904;2023-04-08T06:19:31;2.03;;;0.68;;
21213;SDS011;10764;50.850;2.904;2023-04-08T06:21:58;1.00;;;0.50;;
21213;SDS011;10764;50.850;2.904;2023-04-08T06:24:25;2.07;;;0.60;;
21213;SDS011;10764;50.850;2.904;2023-04-08T06:26:52;0.97;;;0.47;;
21213;SDS011;10764;50.850;2.904;2023-04-08T06:29:20;1.17;;;0.60;;
21213;SDS011;10764;50.850;2.904;2023-04-08T06:31:48;1.50;;;0.60;;
21213;SDS011;10764;50.850;2.904;2023-04-08T06:34:15;1.00;;;0.50;;
21213;SDS011;10764;50.850;2.904;2023-04-08T06:36:42;1.63;;;0.60;;
21213;SDS011;10764;50.850;2.904;2023-04-08T06:39:09;1.57;;;0.60;;
21213;SDS011;10764;50.850;2.904;2023-04-08T06:41:36;1.60;;;0.70;;
21213;SDS011;10764;50.850;2.904;2023-04-08T06:44:17;1.23;;;0.70;;
21213;SDS011;10764;50.850;2.904;2023-04-08T06:46:44;1.50;;;0.60;;
21213;SDS011;10764;50.850;2.904;2023-04-08T06:49:11;2.40;;;0.60;;
21213;SDS011;10764;50.850;2.904;2023-04-08T06:51:38;1.85;;;0.60;;
21213;SDS011;10764;50.850;2.904;2023-04-08T06:54:05;1.30;;;0.60;;
21213;SDS011;10764;50.850;2.904;2023-04-08T06:56:31;2.40;;;0.80;;
21213;SDS011;10764;50.850;2.904;2023-04-08T06:58:58;7.43;;;0.90;;
21213;SDS011;10764;50.850;2.904;2023-04-08T07:01:25;5.55;;;1.10;;
21213;SDS011;10764;50.850;2.904;2023-04-08T07:03:52;8.70;;;1.10;;
21213;SDS011;10764;50.850;2.904;2023-04-08T07:06:19;11.52;;;1.45;;
21213;SDS011;10764;50.850;2.904;2023-04-08T07:08:46;23.00;;;2.22;;
21213;SDS011;10764;50.850;2.904;2023-04-08T07:11:13;21.00;;;2.47;;
21213;SDS011;10764;50.850;2.904;2023-04-08T07:13:39;20.58;;;2.55;;
21213;SDS011;10764;50.850;2.904;2023-04-08T07:16:06;20.15;;;2.40;;
21213;SDS011;10764;50.850;2.904;2023-04-08T07:18:33;11.40;;;1.67;;
21213;SDS011;10764;50.850;2.904;2023-04-08T07:21:00;14.43;;;2.35;;
21213;SDS011;10764;50.850;2.904;2023-04-08T07:23:27;17.95;;;2.55;;
21213;SDS011;10764;50.850;2.904;2023-04-08T07:25:54;15.45;;;2.20;;
21213;SDS011;10764;50.850;2.904;2023-04-08T07:28:21;11.03;;;1.80;;
21213;SDS011;10764;50.850;2.904;2023-04-08T07:30:48;9.90;;;1.75;;
21213;SDS011;10764;50.850;2.904;2023-04-08T07:33:14;13.27;;;1.80;;
21213;SDS011;10764;50.850;2.904;2023-04-08T07:35:41;13.77;;;1.87;;
21213;SDS011;10764;50.850;2.904;2023-04-08T07:38:08;13.70;;;1.85;;
21213;SDS011;10764;50.850;2.904;2023-04-08T07:40:36;12.52;;;1.70;;
21213;SDS011;10764;50.850;2.904;2023-04-08T07:43:03;10.77;;;1.42;;
21213;SDS011;10764;50.850;2.904;2023-04-08T07:45:30;8.63;;;1.85;;
21213;SDS011;10764;50.850;2.904;2023-04-08T07:47:57;8.23;;;1.70;;
21213;SDS011;10764;50.850;2.904;2023-04-08T07:50:24;9.13;;;1.42;;
21213;SDS011;10764;50.850;2.904;2023-04-08T07:52:50;9.30;;;1.42;;
21213;SDS011;10764;50.850;2.904;2023-04-08T07:55:18;15.80;;;1.87;;
21213;SDS011;10764;50.850;2.904;2023-04-08T07:57:45;10.32;;;1.50;;
21213;SDS011;10764;50.850;2.904;2023-04-08T08:00:12;11.48;;;1.58;;
21213;SDS011;10764;50.850;2.904;2023-04-08T08:02:46;10.27;;;2.03;;
21213;SDS011;10764;50.850;2.904;2023-04-08T08:05:13;12.23;;;1.83;;
21213;SDS011;10764;50.850;2.904;2023-04-08T08:07:40;12.23;;;1.73;;
21213;SDS011;10764;50.850;2.904;2023-04-08T08:10:07;10.33;;;1.47;;
21213;SDS011;10764;50.850;2.904;2023-04-08T08:12:35;10.60;;;1.52;;
21213;SDS011;10764;50.850;2.904;2023-04-08T08:15:03;6.85;;;1.35;;
21213;SDS011;10764;50.850;2.904;2023-04-08T08:17:31;11.70;;;1.55;;
21213;SDS011;10764;50.850;2.904;2023-04-08T08:19:59;9.18;;;1.65;;
21213;SDS011;10764;50.850;2.904;2023-04-08T08:22:26;5.20;;;1.42;;
21213;SDS011;10764;50.850;2.904;2023-04-08T08:24:56;5.68;;;1.55;;
21213;SDS011;10764;50.850;2.904;2023-04-08T08:27:23;5.90;;;1.10;;
21213;SDS011;10764;50.850;2.904;2023-04-08T08:29:51;7.50;;;1.25;;
21213;SDS011;10764;50.850;2.904;2023-04-08T08:32:18;8.30;;;1.48;;
21213;SDS011;10764;50.850;2.904;2023-04-08T08:34:44;7.07;;;1.33;;
21213;SDS011;10764;50.850;2.904;2023-04-08T08:37:11;8.18;;;1.40;;
21213;SDS011;10764;50.850;2.904;2023-04-08T08:39:38;5.70;;;1.30;;
21213;SDS011;10764;50.850;2.904;2023-04-08T08:42:05;7.88;;;1.30;;
21213;SDS011;10764;50.850;2.904;2023-04-08T08:44:33;8.98;;;1.10;;
21213;SDS011;10764;50.850;2.904;2023-04-08T08:46:59;6.40;;;1.30;;
21213;SDS011;10764;50.850;2.904;2023-04-08T08:49:26;7.15;;;1.52;;
21213;SDS011;10764;50.850;2.904;2023-04-08T08:51:53;8.45;;;1.40;;
21213;SDS011;10764;50.850;2.904;2023-04-08T08:54:20;7.72;;;1.63;;
21213;SDS011;10764;50.850;2.904;2023-04-08T08:56:47;8.53;;;1.53;;
21213;SDS011;10764;50.850;2.904;2023-04-08T08:59:14;9.57;;;1.65;;
21213;SDS011;10764;50.850;2.904;2023-04-08T09:01:41;9.45;;;1.60;;
21213;SDS011;10764;50.850;2.904;2023-04-08T09:06:39;6.90;;;1.25;;
21213;SDS011;10764;50.850;2.904;2023-04-08T09:09:06;12.27;;;1.73;;
21213;SDS011;10764;50.850;2.904;2023-04-08T09:11:37;12.15;;;1.50;;
21213;SDS011;10764;50.850;2.904;2023-04-08T09:16:45;8.33;;;1.43;;
21213;SDS011;10764;50.850;2.904;2023-04-08T09:19:12;5.18;;;1.25;;
21213;SDS011;10764;50.850;2.904;2023-04-08T09:21:39;6.13;;;1.50;;
21213;SDS011;10764;50.850;2.904;2023-04-08T09:24:07;6.10;;;1.50;;
21213;SDS011;10764;50.850;2.904;2023-04-08T09:26:35;6.30;;;1.73;;
21213;SDS011;10764;50.850;2.904;2023-04-08T09:29:06;5.38;;;1.55;;
21213;SDS011;10764;50.850;2.904;2023-04-08T09:31:54;6.07;;;1.63;;
21213;SDS011;10764;50.850;2.904;2023-04-08T09:34:25;5.07;;;1.67;;
21213;SDS011;10764;50.850;2.904;2023-04-08T09:36:53;8.05;;;1.70;;
21213;SDS011;10764;50.850;2.904;2023-04-08T09:39:21;5.07;;;1.42;;
21213;SDS011;10764;50.850;2.904;2023-04-08T09:41:49;4.65;;;1.33;;
21213;SDS011;10764;50.850;2.904;2023-04-08T09:44:18;4.20;;;1.50;;
21213;SDS011;10764;50.850;2.904;2023-04-08T09:54:30;4.18;;;1.35;;
21213;SDS011;10764;50.850;2.904;2023-04-08T09:57:12;4.53;;;1.30;;
21213;SDS011;10764;50.850;2.904;2023-04-08T09:59:44;5.53;;;1.30;;
21213;SDS011;10764;50.850;2.904;2023-04-08T10:02:18;4.78;;;1.35;;
21213;SDS011;10764;50.850;2.904;2023-04-08T10:04:53;3.88;;;1.17;;
21213;SDS011;10764;50.850;2.904;2023-04-08T10:07:23;6.55;;;1.30;;
21213;SDS011;10764;50.850;2.904;2023-04-08T10:09:50;6.73;;;1.50;;
21213;SDS011;10764;50.850;2.904;2023-04-08T10:12:17;3.58;;;1.20;;
21213;SDS011;10764;50.850;2.904;2023-04-08T10:23:02;5.28;;;1.40;;
21213;SDS011;10764;50.850;2.904;2023-04-08T10:27:59;2.47;;;1.17;;
21213;SDS011;10764;50.850;2.904;2023-04-08T10:32:58;2.15;;;0.90;;
21213;SDS011;10764;50.850;2.904;2023-04-08T10:35:33;2.20;;;0.97;;
21213;SDS011;10764;50.850;2.904;2023-04-08T10:38:01;2.58;;;1.17;;
21213;SDS011;10764;50.850;2.904;2023-04-08T10:40:33;2.60;;;0.90;;
21213;SDS011;10764;50.850;2.904;2023-04-08T10:43:04;2.90;;;0.93;;
21213;SDS011;10764;50.850;2.904;2023-04-08T10:45:31;2.50;;;1.08;;
21213;SDS011;10764;50.850;2.904;2023-04-08T10:50:54;5.15;;;1.90;;
21213;SDS011;10764;50.850;2.904;2023-04-08T10:53:26;8.38;;;2.70;;
21213;SDS011;10764;50.850;2.904;2023-04-08T10:56:02;7.85;;;2.30;;
21213;SDS011;10764;50.850;2.904;2023-04-08T10:58:34;7.20;;;2.40;;
21213;SDS011;10764;50.850;2.904;2023-04-08T11:01:02;7.78;;;2.22;;
21213;SDS011;10764;50.850;2.904;2023-04-08T11:03:33;8.52;;;2.28;;
21213;SDS011;10764;50.850;2.904;2023-04-08T11:06:02;7.40;;;2.28;;
21213;SDS011;10764;50.850;2.904;2023-04-08T11:08:30;7.87;;;2.30;;
21213;SDS011;10764;50.850;2.904;2023-04-08T11:10:58;10.65;;;2.42;;
21213;SDS011;10764;50.850;2.904;2023-04-08T11:13:30;10.02;;;2.53;;
21213;SDS011;10764;50.850;2.904;2023-04-08T11:15:58;13.15;;;2.92;;
21213;SDS011;10764;50.850;2.904;2023-04-08T11:18:26;9.73;;;2.50;;
21213;SDS011;10764;50.850;2.904;2023-04-08T11:20:53;10.25;;;2.60;;
21213;SDS011;10764;50.850;2.904;2023-04-08T11:23:23;10.27;;;2.50;;
21213;SDS011;10764;50.850;2.904;2023-04-08T11:25:50;11.75;;;2.17;;
21213;SDS011;10764;50.850;2.904;2023-04-08T11:28:17;8.35;;;2.30;;
21213;SDS011;10764;50.850;2.904;2023-04-08T11:30:45;10.65;;;2.08;;
21213;SDS011;10764;50.850;2.904;2023-04-08T11:33:13;7.90;;;2.63;;
21213;SDS011;10764;50.850;2.904;2023-04-08T11:35:40;7.35;;;2.20;;
21213;SDS011;10764;50.850;2.904;2023-04-08T11:38:08;9.48;;;3.05;;
21213;SDS011;10764;50.850;2.904;2023-04-08T11:40:36;9.50;;;2.45;;
21213;SDS011;10764;50.850;2.904;2023-04-08T11:43:10;10.38;;;2.72;;
21213;SDS011;10764;50.850;2.904;2023-04-08T11:45:38;10.05;;;2.38;;
21213;SDS011;10764;50.850;2.904;2023-04-08T11:50:35;9.60;;;2.08;;
21213;SDS011;10764;50.850;2.904;2023-04-08T11:53:02;8.23;;;2.30;;
21213;SDS011;10764;50.850;2.904;2023-04-08T11:55:30;8.80;;;2.20;;
21213;SDS011;10764;50.850;2.904;2023-04-08T11:58:01;8.75;;;2.13;;
21213;SDS011;10764;50.850;2.904;2023-04-08T12:00:29;6.27;;;2.10;;
21213;SDS011;10764;50.850;2.904;2023-04-08T12:02:56;7.47;;;2.10;;
21213;SDS011;10764;50.850;2.904;2023-04-08T12:05:23;4.70;;;2.17;;
21213;SDS011;10764;50.850;2.904;2023-04-08T12:07:50;7.07;;;2.08;;
21213;SDS011;10764;50.850;2.904;2023-04-08T12:10:17;6.70;;;2.08;;
21213;SDS011;10764;50.850;2.904;2023-04-08T12:12:43;5.68;;;2.08;;
21213;SDS011;10764;50.850;2.904;2023-04-08T12:15:10;6.30;;;1.83;;
21213;SDS011;10764;50.850;2.904;2023-04-08T12:17:37;8.82;;;2.03;;
21213;SDS011;10764;50.850;2.904;2023-04-08T12:20:04;7.55;;;1.98;;
21213;SDS011;10764;50.850;2.904;2023-04-08T12:22:32;6.13;;;2.17;;
21213;SDS011;10764;50.850;2.904;2023-04-08T12:24:58;7.13;;;2.00;;
21213;SDS011;10764;50.850;2.904;2023-04-08T12:27:28;4.10;;;1.70;;
21213;SDS011;10764;50.850;2.904;2023-04-08T12:29:55;5.72;;;1.83;;
21213;SDS011;10764;50.850;2.904;2023-04-08T12:32:22;4.60;;;1.70;;
21213;SDS011;10764;50.850;2.904;2023-04-08T12:34:50;5.70;;;1.85;;
21213;SDS011;10764;50.850;2.904;2023-04-08T12:37:17;4.17;;;1.70;;
21213;SDS011;10764;50.850;2.904;2023-04-08T12:39:45;6.40;;;1.98;;
21213;SDS011;10764;50.850;2.904;2023-04-08T12:42:13;4.22;;;1.73;;
21213;SDS011;10764;50.850;2.904;2023-04-08T12:44:40;5.80;;;1.70;;
21213;SDS011;10764;50.850;2.904;2023-04-08T12:47:06;5.32;;;1.63;;
21213;SDS011;10764;50.850;2.904;2023-04-08T12:49:33;5.00;;;1.67;;
21213;SDS011;10764;50.850;2.904;2023-04-08T12:52:14;5.10;;;1.70;;
21213;SDS011;10764;50.850;2.904;2023-04-08T12:54:42;5.03;;;1.53;;
21213;SDS011;10764;50.850;2.904;2023-04-08T12:57:09;3.75;;;1.52;;
21213;SDS011;10764;50.850;2.904;2023-04-08T12:59:36;4.38;;;1.50;;
21213;SDS011;10764;50.850;2.904;2023-04-08T13:02:05;3.90;;;1.40;;
21213;SDS011;10764;50.850;2.904;2023-04-08T13:04:33;3.50;;;1.50;;
21213;SDS011;10764;50.850;2.904;2023-04-08T13:07:00;4.17;;;1.60;;
21213;SDS011;10764;50.850;2.904;2023-04-08T13:09:27;5.13;;;1.58;;
21213;SDS011;10764;50.850;2.904;2023-04-08T13:11:56;3.85;;;1.55;;
21213;SDS011;10764;50.850;2.904;2023-04-08T13:14:23;6.22;;;1.42;;
21213;SDS011;10764;50.850;2.904;2023-04-08T13:16:50;4.15;;;1.58;;
21213;SDS011;10764;50.850;2.904;2023-04-08T13:19:17;5.22;;;1.58;;
21213;SDS011;10764;50.850;2.904;2023-04-08T13:21:44;5.10;;;1.42;;
21213;SDS011;10764;50.850;2.904;2023-04-08T13:24:11;4.80;;;1.63;;
21213;SDS011;10764;50.850;2.904;2023-04-08T13:26:38;3.25;;;1.48;;
21213;SDS011;10764;50.850;2.904;2023-04-08T13:29:05;4.25;;;1.50;;
21213;SDS011;10764;50.850;2.904;2023-04-08T13:31:32;3.10;;;1.42;;
21213;SDS011;10764;50.850;2.904;2023-04-08T13:33:59;4.63;;;1.58;;
21213;SDS011;10764;50.850;2.904;2023-04-08T13:36:25;3.45;;;1.42;;
21213;SDS011;10764;50.850;2.904;2023-04-08T13:38:56;3.42;;;1.33;;
21213;SDS011;10764;50.850;2.904;2023-04-08T13:41:23;3.28;;;1.33;;
21213;SDS011;10764;50.850;2.904;2023-04-08T13:43:50;3.27;;;1.40;;
21213;SDS011;10764;50.850;2.904;2023-04-08T13:46:17;3.67;;;1.20;;
21213;SDS011;10764;50.850;2.904;2023-04-08T13:48:44;2.28;;;1.10;;
21213;SDS011;10764;50.850;2.904;2023-04-08T13:51:12;2.72;;;1.27;;
21213;SDS011;10764;50.850;2.904;2023-04-08T13:53:39;2.50;;;1.35;;
21213;SDS011;10764;50.850;2.904;2023-04-08T13:56:06;4.28;;;1.40;;
21213;SDS011;10764;50.850;2.904;2023-04-08T13:58:33;3.67;;;1.20;;
21213;SDS011;10764;50.850;2.904;2023-04-08T14:01:00;5.20;;;1.60;;
21213;SDS011;10764;50.850;2.904;2023-04-08T14:03:28;4.68;;;1.33;;
21213;SDS011;10764;50.850;2.904;2023-04-08T14:05:55;3.30;;;1.40;;
21213;SDS011;10764;50.850;2.904;2023-04-08T14:08:24;4.07;;;1.38;;
21213;SDS011;10764;50.850;2.904;2023-04-08T14:10:51;2.85;;;1.20;;
21213;SDS011;10764;50.850;2.904;2023-04-08T14:13:21;3.10;;;1.30;;
21213;SDS011;10764;50.850;2.904;2023-04-08T14:15:47;3.85;;;1.40;;
21213;SDS011;10764;50.850;2.904;2023-04-08T14:18:16;5.05;;;1.50;;
21213;SDS011;10764;50.850;2.904;2023-04-08T14:20:43;4.03;;;1.40;;
21213;SDS011;10764;50.850;2.904;2023-04-08T14:23:10;3.83;;;1.50;;
21213;SDS011;10764;50.850;2.904;2023-04-08T14:25:38;3.33;;;1.35;;
21213;SDS011;10764;50.850;2.904;2023-04-08T14:28:06;3.78;;;1.50;;
21213;SDS011;10764;50.850;2.904;2023-04-08T14:30:33;4.28;;;1.40;;
21213;SDS011;10764;50.850;2.904;2023-04-08T14:33:01;4.18;;;1.38;;
21213;SDS011;10764;50.850;2.904;2023-04-08T14:35:28;5.00;;;1.70;;
21213;SDS011;10764;50.850;2.904;2023-04-08T14:37:54;15.20;;;2.47;;
21213;SDS011;10764;50.850;2.904;2023-04-08T14:40:23;13.02;;;2.75;;
21213;SDS011;10764;50.850;2.904;2023-04-08T14:42:50;17.15;;;2.83;;
21213;SDS011;10764;50.850;2.904;2023-04-08T14:45:17;16.58;;;2.72;;
21213;SDS011;10764;50.850;2.904;2023-04-08T14:47:44;19.27;;;3.05;;
21213;SDS011;10764;50.850;2.904;2023-04-08T14:50:11;19.07;;;2.83;;
21213;SDS011;10764;50.850;2.904;2023-04-08T14:52:38;20.48;;;2.97;;
21213;SDS011;10764;50.850;2.904;2023-04-08T14:55:05;18.57;;;3.10;;
21213;SDS011;10764;50.850;2.904;2023-04-08T14:57:32;12.30;;;2.65;;
21213;SDS011;10764;50.850;2.904;2023-04-08T14:59:59;16.35;;;2.75;;
21213;SDS011;10764;50.850;2.904;2023-04-08T15:02:27;16.98;;;3.28;;
21213;SDS011;10764;50.850;2.904;2023-04-08T15:04:53;18.40;;;3.08;;
21213;SDS011;10764;50.850;2.904;2023-04-08T15:07:21;15.57;;;3.03;;
21213;SDS011;10764;50.850;2.904;2023-04-08T15:09:49;12.25;;;2.88;;
21213;SDS011;10764;50.850;2.904;2023-04-08T15:12:16;10.80;;;2.67;;
21213;SDS011;10764;50.850;2.904;2023-04-08T15:14:43;10.07;;;2.28;;
21213;SDS011;10764;50.850;2.904;2023-04-08T15:17:09;19.27;;;3.03;;
21213;SDS011;10764;50.850;2.904;2023-04-08T15:19:36;12.27;;;2.60;;
21213;SDS011;10764;50.850;2.904;2023-04-08T15:22:03;12.18;;;2.47;;
21213;SDS011;10764;50.850;2.904;2023-04-08T15:24:30;14.68;;;2.58;;
21213;SDS011;10764;50.850;2.904;2023-04-08T15:26:57;11.82;;;2.40;;
21213;SDS011;10764;50.850;2.904;2023-04-08T15:29:23;10.80;;;2.50;;
21213;SDS011;10764;50.850;2.904;2023-04-08T15:31:51;10.13;;;2.28;;
21213;SDS011;10764;50.850;2.904;2023-04-08T15:34:18;8.43;;;2.15;;
21213;SDS011;10764;50.850;2.904;2023-04-08T15:36:45;8.40;;;2.20;;